Hauptseite
METAR-TAF:

METAR-TAF

Flughäfen :

Bric della Croce

Turin, Italien

Breite: 45-02N, Länge: 007-44E, Höhe: 709 m

Beobachtung

Neuester Wetterbericht von vor 1 Stunde und 8 Minuten, um 08:55 UTC
Wind 4 kt aus Nord/Nordwest
Temperatur -1°C
Luftfeuchtigkeit 100%
Luftdruck 1014 hPa
Sichtweite: 0100 m
Gefrierender Nebel

METAR: LIMK 190855Z 34004KT 0100 FZFG VV001 M01/M01 Q1014 RMK VAL INVIS VIS MIN 0100

Zeit: 11:03 (10:03 UTC)


TAF: fehlend

Wetterbeobachtungen und Prognosen von mehr als 4000 Flughäfen (METAR und TAF Bericht).

Die verfügbaren Stationen werden durch gelbe und rote Markierungen auf der Karte dargestellt.

Führen Sie die Maus auf sie, um den Namen der Station zu sehen.

Darauf klicken, um die Beobachtung von Wetterbeobachtungen und Prognosen zu sehen.

Um die Karte zu ändern : klicken Sie auf den grünen Tasten mit einem schwarzen Kreuz Zum Vergrößern, auf den grünen Button mit einem Gedankenstrich zu verkleinern, oder auf die grünen Pfeile für benachbarte Karten.


METAR-TAF: